Time;durP1;ratioP1;P1;durP2;ratioP2;P2;SDS_P1;SDS_P2;PMS_P1;PMS_P2;Temp;Humidity;BMP_temperature;BMP_pressure;BME280_temperature;BME280_humidity;BME280_pressure;Samples;Min_cycle;Max_cycle;Signal;HPM_P1;HPM_P2
2023/01/29 00:00:36;;;;;;;30.23;15.90;;;1.40;99.00;;;;;;5020523;28;20063;-69
2023/01/29 00:03:02;;;;;;;28.33;14.70;;;1.40;98.90;;;;;;5021553;28;20042;-66
2023/01/29 00:05:27;;;;;;;30.80;15.23;;;1.40;98.90;;;;;;5027622;28;20398;-66
2023/01/29 00:07:54;;;;;;;32.47;16.05;;;1.40;98.90;;;;;;5026265;28;20026;-66
2023/01/29 00:10:19;;;;;;;30.80;15.32;;;1.40;98.90;;;;;;5022560;28;20479;-66
2023/01/29 00:12:45;;;;;;;33.13;16.33;;;1.40;98.80;;;;;;5027654;28;20041;-66
2023/01/29 00:15:10;;;;;;;33.05;15.75;;;1.40;98.80;;;;;;5023392;28;20473;-68
2023/01/29 00:17:36;;;;;;;32.72;15.98;;;1.40;98.80;;;;;;5026507;28;20029;-66
2023/01/29 00:20:01;;;;;;;31.73;16.65;;;1.40;98.70;;;;;;5019634;28;20123;-66
2023/01/29 00:22:29;;;;;;;30.35;16.02;;;1.40;98.70;;;;;;5026504;28;20038;-69
2023/01/29 00:24:54;;;;;;;30.90;14.32;;;1.40;98.70;;;;;;5020710;28;20394;-66
2023/01/29 00:27:20;;;;;;;30.67;15.95;;;1.40;98.70;;;;;;5028655;28;20025;-66
2023/01/29 00:30:07;;;;;;;30.13;15.52;;;1.40;98.70;;;;;;5015290;28;20379;-66
2023/01/29 00:32:31;;;;;;;30.70;16.23;;;1.40;98.70;;;;;;5020495;28;20112;-66
2023/01/29 00:34:56;;;;;;;29.77;15.85;;;1.40;98.60;;;;;;5025811;28;20117;-67
2023/01/29 00:37:22;;;;;;;27.92;14.95;;;1.40;98.60;;;;;;5024486;28;20041;-68
2023/01/29 00:39:48;;;;;;;26.45;15.18;;;1.40;98.70;;;;;;5022748;28;20022;-67
2023/01/29 00:44:57;;;;;;;32.42;15.02;;;1.40;98.70;;;;;;5025582;28;20168;-66
2023/01/29 00:47:32;;;;;;;37.75;15.18;;;1.30;98.70;;;;;;5032300;28;20111;-69
2023/01/29 00:49:59;;;;;;;28.17;14.48;;;1.30;98.70;;;;;;5030978;28;20312;-67
2023/01/29 00:52:25;;;;;;;26.63;14.25;;;1.40;98.70;;;;;;5031173;28;20052;-67
2023/01/29 00:54:59;;;;;;;32.80;15.98;;;1.30;98.80;;;;;;5028953;28;20037;-66
2023/01/29 00:57:26;;;;;;;33.00;15.70;;;1.30;98.80;;;;;;5029792;28;20029;-68
2023/01/29 00:59:52;;;;;;;30.30;15.45;;;1.30;98.80;;;;;;5023782;28;20028;-67
2023/01/29 01:05:04;;;;;;;26.02;13.93;;;1.30;98.80;;;;;;5028155;28;20065;-66
2023/01/29 01:07:30;;;;;;;29.20;14.18;;;1.20;98.80;;;;;;5026919;28;20488;-67
2023/01/29 01:12:40;;;;;;;28.55;15.25;;;1.20;98.80;;;;;;5028583;28;20052;-66
2023/01/29 01:15:06;;;;;;;30.85;15.80;;;1.10;98.80;;;;;;5030586;28;20389;-68
2023/01/29 01:17:31;;;;;;;31.63;15.00;;;1.10;98.80;;;;;;5021257;28;20037;-68
2023/01/29 01:19:56;;;;;;;34.63;15.88;;;1.10;98.90;;;;;;5025485;28;20033;-69
2023/01/29 01:22:22;;;;;;;32.28;14.65;;;1.10;98.90;;;;;;5025076;28;20412;-70
2023/01/29 01:24:47;;;;;;;33.88;17.00;;;1.10;98.90;;;;;;5024315;28;20108;-68
2023/01/29 01:27:13;;;;;;;28.10;15.57;;;1.10;98.90;;;;;;5027419;28;20386;-70
2023/01/29 01:29:39;;;;;;;29.38;15.23;;;1.20;98.90;;;;;;5025523;28;20056;-70
2023/01/29 01:32:05;;;;;;;27.65;14.82;;;1.20;98.90;;;;;;5020240;28;20180;-69
2023/01/29 01:34:31;;;;;;;31.65;15.45;;;1.10;98.80;;;;;;5029896;28;20470;-68
2023/01/29 01:36:56;;;;;;;31.40;15.45;;;1.20;98.80;;;;;;5025573;28;20022;-68
2023/01/29 01:39:23;;;;;;;31.80;15.02;;;1.20;98.80;;;;;;5027955;28;20036;-69
2023/01/29 01:41:49;;;;;;;31.45;16.42;;;1.20;98.70;;;;;;5023107;28;20121;-69
2023/01/29 01:44:52;;;;;;;28.98;14.88;;;1.20;98.60;;;;;;5018412;28;20030;-69
2023/01/29 01:47:29;;;;;;;30.10;15.80;;;1.30;98.60;;;;;;5022100;28;20030;-68
2023/01/29 01:50:01;;;;;;;30.13;15.55;;;1.20;98.60;;;;;;5025128;28;20057;-68
2023/01/29 01:52:29;;;;;;;26.17;15.02;;;1.30;98.60;;;;;;5023270;28;20430;-68
2023/01/29 01:54:56;;;;;;;27.92;15.25;;;1.30;98.50;;;;;;5026663;28;20040;-69
2023/01/29 01:57:24;;;;;;;31.92;16.20;;;1.30;98.40;;;;;;5024523;28;20057;-69
2023/01/29 01:59:58;;;;;;;29.10;14.48;;;1.30;98.40;;;;;;5028386;28;20448;-69
2023/01/29 02:10:46;;;;;;;30.00;14.48;;;1.30;98.30;;;;;;5031181;28;20121;-68
2023/01/29 02:13:15;;;;;;;26.13;14.93;;;1.30;98.30;;;;;;5027732;28;20151;-68
2023/01/29 02:15:45;;;;;;;30.02;15.60;;;1.30;98.20;;;;;;5027021;28;20039;-69
2023/01/29 02:18:12;;;;;;;29.60;15.35;;;1.30;98.20;;;;;;5029481;28;20118;-68
2023/01/29 02:20:42;;;;;;;28.33;15.05;;;1.30;98.20;;;;;;5022148;28;20532;-68
2023/01/29 02:23:34;;;;;;;30.17;16.03;;;1.30;98.20;;;;;;5027113;28;20033;-69
2023/01/29 02:26:24;;;;;;;29.20;14.35;;;1.30;98.20;;;;;;5028394;28;20643;-69
2023/01/29 02:29:32;;;;;;;31.88;14.43;;;1.30;98.30;;;;;;5029112;28;20061;-70
2023/01/29 02:32:19;;;;;;;23.90;14.32;;;1.30;98.30;;;;;;5030107;28;20037;-69
2023/01/29 02:38:07;;;;;;;27.17;14.38;;;1.30;98.40;;;;;;5027247;28;20099;-70
2023/01/29 02:40:58;;;;;;;30.27;15.10;;;1.30;98.40;;;;;;5022491;28;20049;-68
2023/01/29 02:43:37;;;;;;;24.85;13.13;;;1.30;98.50;;;;;;5030227;28;20033;-68
2023/01/29 02:46:11;;;;;;;27.25;14.85;;;1.30;98.50;;;;;;5024416;28;20036;-69
2023/01/29 02:48:54;;;;;;;27.33;14.32;;;1.30;98.50;;;;;;5026055;28;20652;-68
2023/01/29 02:51:37;;;;;;;28.33;14.35;;;1.30;98.60;;;;;;5020277;28;20450;-68
2023/01/29 02:54:27;;;;;;;28.23;14.82;;;1.30;98.70;;;;;;5024540;28;20087;-71
2023/01/29 02:56:58;;;;;;;25.60;12.90;;;1.30;98.70;;;;;;5038795;28;20033;-70
2023/01/29 02:59:33;;;;;;;25.35;13.95;;;1.30;98.80;;;;;;5021780;28;20790;-70
2023/01/29 03:02:04;;;;;;;31.13;15.68;;;1.30;98.90;;;;;;5037877;28;20029;-69
2023/01/29 03:04:33;;;;;;;29.00;14.05;;;1.30;98.90;;;;;;5018983;28;20018;-68
2023/01/29 03:07:39;;;;;;;26.73;14.63;;;1.30;99.00;;;;;;5020755;28;20030;-68
2023/01/29 03:09:58;;;;;;;28.42;13.95;;;1.30;99.00;;;;;;5034856;28;20026;-68
2023/01/29 03:12:33;;;;;;;28.20;14.70;;;1.30;99.10;;;;;;5026759;28;20494;-69
2023/01/29 03:15:10;;;;;;;25.05;14.23;;;1.30;99.10;;;;;;5032200;28;20419;-69
2023/01/29 03:17:45;;;;;;;31.15;15.50;;;1.30;99.20;;;;;;5027305;28;20033;-68
2023/01/29 03:20:17;;;;;;;31.65;14.55;;;1.30;99.20;;;;;;5028266;28;20029;-69
2023/01/29 03:22:49;;;;;;;34.22;15.25;;;1.30;99.20;;;;;;5025415;28;20081;-69
2023/01/29 03:33:46;;;;;;;27.80;15.00;;;1.30;99.30;;;;;;5029049;28;20044;-70
2023/01/29 03:36:25;;;;;;;31.50;15.77;;;1.30;99.30;;;;;;5023687;28;20040;-70
2023/01/29 03:38:51;;;;;;;29.48;15.02;;;1.30;99.30;;;;;;5024912;28;20029;-69
2023/01/29 03:41:30;;;;;;;28.42;14.95;;;1.30;99.30;;;;;;5023542;28;20488;-69
2023/01/29 03:44:16;;;;;;;37.30;15.88;;;1.30;99.30;;;;;;5024878;28;20033;-69
2023/01/29 03:46:55;;;;;;;29.67;15.07;;;1.30;99.30;;;;;;5019731;28;20029;-70
2023/01/29 03:49:56;;;;;;;37.55;15.48;;;1.30;99.30;;;;;;5017022;28;20044;-69
2023/01/29 03:52:36;;;;;;;34.60;16.88;;;1.30;99.20;;;;;;5019433;28;20132;-71
2023/01/29 03:55:09;;;;;;;33.13;15.55;;;1.20;99.20;;;;;;5027117;28;20038;-69
2023/01/29 03:58:04;;;;;;;29.50;15.40;;;1.30;99.20;;;;;;5021762;28;20021;-69
2023/01/29 04:00:50;;;;;;;30.73;15.02;;;1.20;99.20;;;;;;5020834;28;20029;-69
2023/01/29 04:03:23;;;;;;;30.63;15.75;;;1.20;99.20;;;;;;5026561;28;20030;-69
2023/01/29 04:06:10;;;;;;;35.35;16.33;;;1.20;99.20;;;;;;5026734;28;20052;-69
2023/01/29 04:08:49;;;;;;;30.17;15.10;;;1.20;99.10;;;;;;5029261;28;20060;-69
2023/01/29 04:11:18;;;;;;;30.98;15.75;;;1.20;99.10;;;;;;5022100;28;20033;-69
2023/01/29 04:13:45;;;;;;;32.70;17.02;;;1.20;99.10;;;;;;5026866;28;20373;-72
2023/01/29 04:16:21;;;;;;;32.55;16.17;;;1.20;99.00;;;;;;5024726;28;20057;-68
2023/01/29 04:18:47;;;;;;;33.45;16.20;;;1.10;99.00;;;;;;5027683;28;20116;-69
2023/01/29 04:21:14;;;;;;;32.10;16.98;;;1.20;99.00;;;;;;5023325;28;20426;-69
2023/01/29 04:23:40;;;;;;;31.38;16.35;;;1.10;98.90;;;;;;5025356;28;20398;-69
2023/01/29 04:26:32;;;;;;;31.67;17.02;;;1.10;98.80;;;;;;5022443;28;20041;-69
2023/01/29 04:29:17;;;;;;;36.15;17.08;;;1.10;98.80;;;;;;5023518;28;20036;-72
2023/01/29 04:32:06;;;;;;;34.28;16.52;;;1.10;98.70;;;;;;5025486;28;20119;-69
2023/01/29 04:34:58;;;;;;;33.65;15.85;;;1.10;98.60;;;;;;5021811;28;20037;-68
2023/01/29 04:37:51;;;;;;;29.55;15.43;;;1.10;98.50;;;;;;5021529;28;20135;-69
2023/01/29 04:40:19;;;;;;;31.30;15.05;;;1.10;98.30;;;;;;5024487;28;20060;-69
2023/01/29 04:43:04;;;;;;;34.42;16.58;;;1.10;98.30;;;;;;5027871;28;20056;-69
2023/01/29 04:45:53;;;;;;;32.55;16.75;;;1.10;98.20;;;;;;5019386;28;20073;-69
2023/01/29 04:48:25;;;;;;;31.15;15.80;;;1.10;98.10;;;;;;5030038;28;20112;-68
2023/01/29 04:51:10;;;;;;;30.25;15.80;;;1.10;98.00;;;;;;5027912;28;20458;-68
2023/01/29 04:53:46;;;;;;;28.98;15.50;;;1.10;97.90;;;;;;5034011;28;20064;-69
2023/01/29 04:56:39;;;;;;;31.15;15.02;;;1.10;97.90;;;;;;5021171;28;20108;-68
2023/01/29 04:59:10;;;;;;;35.25;16.60;;;1.10;97.80;;;;;;5022958;28;20128;-68
2023/01/29 05:01:37;;;;;;;33.15;16.42;;;1.10;97.80;;;;;;5025870;28;20133;-68
2023/01/29 05:04:08;;;;;;;29.08;16.05;;;1.10;97.70;;;;;;5026230;28;20038;-71
2023/01/29 05:06:35;;;;;;;32.25;15.40;;;1.10;97.60;;;;;;5020548;28;20029;-69
2023/01/29 05:09:02;;;;;;;32.80;16.38;;;1.10;97.40;;;;;;5031018;28;20033;-68
2023/01/29 05:11:31;;;;;;;32.35;17.27;;;1.10;97.40;;;;;;5023551;28;20437;-68
2023/01/29 05:13:58;;;;;;;31.17;16.35;;;1.10;97.40;;;;;;5026311;28;20040;-68
2023/01/29 05:16:40;;;;;;;27.88;14.65;;;1.10;97.40;;;;;;5021614;28;20112;-68
2023/01/29 05:19:10;;;;;;;32.60;16.42;;;1.10;97.40;;;;;;5022586;28;20025;-70
2023/01/29 05:21:37;;;;;;;31.98;16.90;;;1.10;97.40;;;;;;5023204;28;20017;-68
2023/01/29 05:24:08;;;;;;;30.67;16.02;;;1.10;97.30;;;;;;5025569;28;20180;-70
2023/01/29 05:29:19;;;;;;;29.30;16.15;;;1.10;97.30;;;;;;5027161;28;20035;-68
2023/01/29 05:31:45;;;;;;;29.50;16.08;;;1.10;97.40;;;;;;5033409;28;20406;-68
2023/01/29 05:34:10;;;;;;;31.52;17.25;;;1.10;97.30;;;;;;5029017;28;20392;-68
2023/01/29 05:36:36;;;;;;;27.55;15.38;;;1.20;97.30;;;;;;5028729;28;20035;-68
2023/01/29 05:39:01;;;;;;;34.95;15.85;;;1.10;97.30;;;;;;5028498;28;20037;-68
2023/01/29 05:41:27;;;;;;;30.70;15.35;;;1.20;97.30;;;;;;5030151;28;20382;-68
2023/01/29 05:43:52;;;;;;;27.83;16.08;;;1.20;97.20;;;;;;5027040;28;20533;-68
2023/01/29 05:46:18;;;;;;;31.85;16.33;;;1.20;97.10;;;;;;5022415;28;20029;-68
2023/01/29 05:48:43;;;;;;;30.08;16.85;;;1.20;97.10;;;;;;5027074;28;20064;-67
2023/01/29 05:51:09;;;;;;;29.42;17.48;;;1.20;97.00;;;;;;5029278;28;20064;-67
2023/01/29 05:53:34;;;;;;;31.05;16.83;;;1.20;96.90;;;;;;5022878;28;20045;-67
2023/01/29 05:56:01;;;;;;;31.25;16.00;;;1.20;96.80;;;;;;5029531;28;20386;-67
2023/01/29 05:58:27;;;;;;;34.00;18.42;;;1.10;96.90;;;;;;5025531;28;20033;-67
2023/01/29 06:00:52;;;;;;;31.30;17.38;;;1.10;97.00;;;;;;5029316;28;20037;-68
2023/01/29 06:03:18;;;;;;;31.42;16.55;;;1.10;97.00;;;;;;5031325;28;20120;-68
2023/01/29 06:05:43;;;;;;;32.20;18.45;;;1.10;97.00;;;;;;5023258;28;20029;-69
2023/01/29 06:08:09;;;;;;;33.88;17.80;;;1.20;97.10;;;;;;5028568;28;20033;-69
2023/01/29 06:10:34;;;;;;;34.78;17.88;;;1.20;96.80;;;;;;5024572;28;20382;-68
2023/01/29 06:13:00;;;;;;;34.55;18.23;;;1.20;96.80;;;;;;5031986;28;20120;-67
2023/01/29 06:15:26;;;;;;;32.22;17.60;;;1.20;96.80;;;;;;5027109;28;20041;-67
2023/01/29 06:17:56;;;;;;;33.30;18.40;;;1.30;96.80;;;;;;5025529;28;20042;-67
2023/01/29 06:20:21;;;;;;;31.20;16.92;;;1.30;96.80;;;;;;5026882;28;20040;-67
2023/01/29 06:22:47;;;;;;;31.50;18.42;;;1.30;96.90;;;;;;5030102;28;20049;-69
2023/01/29 06:25:12;;;;;;;32.70;17.85;;;1.30;96.80;;;;;;5031014;28;20033;-67
2023/01/29 06:27:38;;;;;;;28.98;17.10;;;1.30;96.70;;;;;;5026627;28;20033;-67
2023/01/29 06:30:04;;;;;;;32.35;16.10;;;1.30;96.60;;;;;;5028932;28;20034;-68
2023/01/29 06:32:30;;;;;;;33.40;17.80;;;1.30;96.60;;;;;;5020908;28;20061;-68
2023/01/29 06:34:56;;;;;;;30.35;18.55;;;1.30;96.70;;;;;;5026944;28;20131;-68
2023/01/29 06:37:21;;;;;;;34.55;18.20;;;1.30;96.70;;;;;;5023619;28;20061;-69
2023/01/29 06:39:47;;;;;;;31.75;17.95;;;1.30;96.60;;;;;;5029297;28;20034;-68
2023/01/29 06:42:12;;;;;;;36.10;19.27;;;1.30;96.50;;;;;;5026811;28;20042;-68
2023/01/29 06:44:38;;;;;;;33.47;18.42;;;1.30;96.50;;;;;;5025032;28;20385;-69
2023/01/29 06:47:03;;;;;;;34.47;18.30;;;1.30;96.40;;;;;;5021784;28;20080;-69
2023/01/29 06:49:29;;;;;;;35.88;18.95;;;1.30;96.40;;;;;;5034406;28;20112;-68
2023/01/29 06:51:54;;;;;;;33.22;17.98;;;1.30;96.40;;;;;;5027927;28;20091;-69
2023/01/29 06:54:20;;;;;;;30.92;18.13;;;1.30;96.40;;;;;;5032002;28;20029;-69
2023/01/29 06:56:45;;;;;;;32.90;17.73;;;1.30;96.40;;;;;;5032872;28;20112;-69
2023/01/29 06:59:11;;;;;;;35.78;18.38;;;1.30;96.40;;;;;;5022768;28;20516;-68
2023/01/29 07:01:41;;;;;;;32.90;18.08;;;1.20;96.50;;;;;;5031471;28;20033;-68
2023/01/29 07:04:07;;;;;;;29.73;16.23;;;1.20;96.50;;;;;;5030880;28;20096;-69
2023/01/29 07:06:33;;;;;;;31.85;19.50;;;1.20;96.50;;;;;;5028977;28;20560;-68
2023/01/29 07:08:58;;;;;;;32.90;18.35;;;1.10;96.60;;;;;;5031869;28;20026;-68
2023/01/29 07:11:24;;;;;;;30.30;17.55;;;1.10;96.60;;;;;;5024115;28;20109;-68
2023/01/29 07:13:49;;;;;;;32.85;18.25;;;1.10;96.80;;;;;;5028242;28;20041;-69
2023/01/29 07:16:15;;;;;;;36.20;19.00;;;1.10;96.80;;;;;;5026963;28;20482;-69
2023/01/29 07:18:40;;;;;;;35.28;18.85;;;1.10;96.90;;;;;;5028070;28;20033;-68
2023/01/29 07:21:06;;;;;;;34.60;18.08;;;1.10;97.00;;;;;;5026221;28;20045;-69
2023/01/29 07:23:33;;;;;;;34.33;19.80;;;1.10;96.90;;;;;;5030807;28;20525;-68
2023/01/29 07:26:03;;;;;;;35.63;19.10;;;1.10;96.90;;;;;;5019470;28;20607;-69
2023/01/29 07:28:29;;;;;;;35.97;18.48;;;1.10;96.90;;;;;;5025334;28;20054;-68
2023/01/29 07:30:58;;;;;;;33.58;19.20;;;1.10;97.00;;;;;;5029148;28;20033;-68
2023/01/29 07:33:24;;;;;;;38.08;19.52;;;1.10;97.00;;;;;;5021024;28;20037;-68
2023/01/29 07:35:49;;;;;;;36.03;20.58;;;1.10;97.00;;;;;;5028905;28;20121;-69
2023/01/29 07:38:15;;;;;;;37.45;19.17;;;1.20;97.00;;;;;;5023621;28;20068;-68
2023/01/29 07:40:40;;;;;;;38.35;19.67;;;1.30;97.20;;;;;;5032313;28;20083;-69
2023/01/29 07:43:07;;;;;;;40.35;22.20;;;1.30;97.10;;;;;;5028651;28;20136;-69
2023/01/29 07:45:37;;;;;;;42.17;21.42;;;1.40;97.10;;;;;;5022993;28;20029;-68
2023/01/29 07:48:09;;;;;;;42.30;21.92;;;1.40;97.20;;;;;;5024747;28;20049;-69
2023/01/29 07:50:34;;;;;;;39.30;21.60;;;1.40;97.30;;;;;;5028534;28;20037;-69
2023/01/29 07:53:00;;;;;;;44.15;22.10;;;1.40;97.40;;;;;;5028180;28;20037;-68
2023/01/29 07:55:26;;;;;;;36.78;21.15;;;1.50;97.40;;;;;;5027416;28;20060;-69
2023/01/29 07:57:56;;;;;;;38.30;21.40;;;1.60;97.60;;;;;;5028282;28;20121;-68
2023/01/29 08:00:22;;;;;;;43.20;23.40;;;1.60;97.50;;;;;;5027721;28;20116;-69
2023/01/29 08:02:47;;;;;;;42.60;22.67;;;1.60;97.60;;;;;;5039128;28;20488;-69
2023/01/29 08:05:13;;;;;;;39.80;22.20;;;1.60;97.60;;;;;;5029724;28;20036;-68
2023/01/29 08:07:38;;;;;;;38.42;21.55;;;1.70;97.60;;;;;;5027703;28;20033;-69
2023/01/29 08:10:04;;;;;;;42.88;23.15;;;1.70;97.60;;;;;;5025509;28;20417;-69
2023/01/29 08:12:29;;;;;;;44.90;23.00;;;1.70;97.60;;;;;;5026795;28;20045;-69
2023/01/29 08:14:55;;;;;;;45.85;25.45;;;1.70;97.60;;;;;;5028180;28;20524;-69
2023/01/29 08:17:20;;;;;;;42.22;22.10;;;1.80;97.70;;;;;;5024776;28;20037;-69
2023/01/29 08:19:46;;;;;;;45.72;26.55;;;1.80;97.70;;;;;;5027956;28;20043;-68
2023/01/29 08:22:11;;;;;;;45.83;24.55;;;1.80;97.70;;;;;;5024199;28;20099;-69
2023/01/29 08:24:36;;;;;;;44.03;24.85;;;1.80;97.70;;;;;;5018672;28;20125;-69
2023/01/29 08:27:02;;;;;;;48.08;26.02;;;1.80;97.70;;;;;;5021865;28;20052;-69
2023/01/29 08:29:28;;;;;;;51.80;26.23;;;1.90;97.70;;;;;;5024963;28;20369;-68
2023/01/29 08:31:53;;;;;;;44.20;24.38;;;1.90;97.70;;;;;;5025059;28;20438;-68
2023/01/29 08:34:19;;;;;;;51.33;26.73;;;1.90;97.70;;;;;;5027420;28;20033;-69
2023/01/29 08:36:44;;;;;;;50.70;28.20;;;1.90;97.80;;;;;;5021546;28;20080;-69
2023/01/29 08:39:10;;;;;;;53.30;28.23;;;1.80;97.80;;;;;;5024652;28;20092;-68
2023/01/29 08:41:35;;;;;;;50.55;28.83;;;1.90;97.90;;;;;;5024796;28;20064;-69
2023/01/29 08:44:03;;;;;;;56.00;28.35;;;1.90;97.80;;;;;;5027302;28;20042;-69
2023/01/29 08:46:28;;;;;;;56.95;29.15;;;2.00;97.90;;;;;;5018576;28;20068;-68
2023/01/29 08:48:54;;;;;;;58.35;28.42;;;2.00;97.90;;;;;;5027571;28;20072;-69
2023/01/29 08:51:20;;;;;;;59.42;31.42;;;2.00;97.90;;;;;;5024791;28;20029;-69
2023/01/29 08:53:45;;;;;;;61.30;29.48;;;2.00;97.90;;;;;;5023752;28;20075;-68
2023/01/29 08:56:11;;;;;;;59.70;30.27;;;2.10;97.90;;;;;;5026851;28;20038;-68
2023/01/29 08:58:36;;;;;;;56.72;30.15;;;2.10;97.80;;;;;;5027198;28;20033;-68
2023/01/29 09:01:06;;;;;;;63.88;31.52;;;2.10;97.80;;;;;;5022865;28;20080;-68
2023/01/29 09:03:31;;;;;;;60.72;29.35;;;2.10;97.80;;;;;;5023213;28;20038;-68
2023/01/29 09:05:57;;;;;;;58.85;29.52;;;2.10;97.80;;;;;;5026146;28;20036;-70
2023/01/29 09:08:22;;;;;;;57.55;29.38;;;2.10;97.90;;;;;;5024426;28;20041;-69
2023/01/29 09:10:48;;;;;;;52.70;29.88;;;2.10;97.70;;;;;;5017812;28;20145;-69
2023/01/29 09:13:13;;;;;;;59.65;31.20;;;2.10;97.80;;;;;;5027935;28;20065;-68
2023/01/29 09:15:39;;;;;;;54.78;28.90;;;2.20;97.70;;;;;;5021658;28;20026;-68
2023/01/29 09:18:04;;;;;;;59.58;30.52;;;2.20;97.80;;;;;;5018900;28;20395;-69
2023/01/29 09:20:30;;;;;;;59.03;32.13;;;2.20;97.70;;;;;;5019353;28;20064;-69
2023/01/29 09:22:57;;;;;;;52.83;28.80;;;2.20;97.70;;;;;;5030999;28;20053;-69
2023/01/29 09:25:23;;;;;;;52.72;28.17;;;2.20;97.70;;;;;;5021389;28;20480;-70
2023/01/29 09:27:49;;;;;;;58.22;30.38;;;2.30;97.70;;;;;;5018662;28;20026;-69
2023/01/29 09:30:14;;;;;;;54.30;30.98;;;2.30;97.60;;;;;;5016167;28;20030;-68
2023/01/29 09:32:40;;;;;;;55.67;28.70;;;2.30;97.70;;;;;;5023249;28;20044;-68
2023/01/29 09:35:06;;;;;;;53.65;28.88;;;2.30;97.80;;;;;;5024135;28;20044;-68
2023/01/29 09:37:31;;;;;;;57.83;29.58;;;2.30;97.80;;;;;;5021955;28;20025;-69
2023/01/29 09:39:57;;;;;;;51.30;28.70;;;2.30;97.90;;;;;;5021086;28;20109;-69
2023/01/29 09:42:28;;;;;;;54.38;28.35;;;2.30;97.90;;;;;;5016200;28;20103;-69
2023/01/29 09:45:10;;;;;;;;;;;2.30;98.00;;;;;;5024475;28;20033;-68
2023/01/29 09:47:36;;;;;;;50.03;27.60;;;2.30;98.00;;;;;;5024436;28;19969;-68
2023/01/29 09:50:15;;;;;;;50.80;28.63;;;2.30;98.00;;;;;;5027250;28;20041;-68
2023/01/29 09:53:03;;;;;;;53.47;27.83;;;2.30;98.00;;;;;;5024787;28;20037;-68
2023/01/29 09:55:44;;;;;;;52.40;27.17;;;2.40;98.10;;;;;;5024381;28;20025;-68
2023/01/29 09:58:16;;;;;;;46.10;25.30;;;2.40;98.00;;;;;;5027062;28;20030;-69
2023/01/29 10:01:09;;;;;;;47.55;25.20;;;2.40;97.80;;;;;;5023011;28;20036;-69
2023/01/29 10:04:06;;;;;;;45.08;25.88;;;2.50;97.80;;;;;;5025162;28;20033;-69
2023/01/29 10:07:12;;;;;;;43.75;23.75;;;2.50;97.80;;;;;;5026551;28;20686;-70
2023/01/29 10:09:49;;;;;;;41.38;24.77;;;2.50;97.70;;;;;;5024616;28;20404;-69
2023/01/29 10:12:49;;;;;;;38.83;23.13;;;2.60;97.70;;;;;;5027735;28;20057;-69
2023/01/29 10:15:48;;;;;;;45.88;25.42;;;2.60;97.60;;;;;;5033368;28;20033;-68
2023/01/29 10:18:30;;;;;;;37.90;22.45;;;2.60;97.50;;;;;;5029589;28;20033;-69
2023/01/29 10:21:25;;;;;;;38.17;21.63;;;2.60;97.50;;;;;;5031189;28;20045;-69
2023/01/29 10:24:29;;;;;;;33.42;19.83;;;2.60;97.50;;;;;;5030240;28;20723;-68
2023/01/29 10:26:54;;;;;;;35.75;22.25;;;2.60;97.20;;;;;;5030907;28;20030;-68
2023/01/29 10:29:20;;;;;;;36.85;20.95;;;2.60;97.10;;;;;;5029701;28;20102;-68
2023/01/29 10:31:51;;;;;;;38.38;23.05;;;2.60;97.10;;;;;;5024259;28;20022;-69
2023/01/29 10:34:34;;;;;;;37.40;22.27;;;2.60;96.90;;;;;;5020476;28;20394;-69
2023/01/29 10:37:05;;;;;;;38.00;22.13;;;2.70;96.70;;;;;;5027118;28;20045;-69
2023/01/29 10:39:31;;;;;;;36.80;21.00;;;2.70;96.90;;;;;;5032811;28;20030;-69
2023/01/29 10:42:32;;;;;;;36.33;21.83;;;2.70;96.90;;;;;;5025896;28;20092;-68
2023/01/29 10:45:17;;;;;;;35.63;20.55;;;2.80;97.10;;;;;;5023524;28;20120;-69
2023/01/29 10:48:12;;;;;;;38.03;21.98;;;2.80;97.00;;;;;;5026156;28;20045;-69
2023/01/29 10:50:50;;;;;;;35.20;21.35;;;2.80;96.90;;;;;;5026149;28;20026;-68
2023/01/29 10:53:42;;;;;;;36.50;21.23;;;2.80;96.90;;;;;;5021671;28;20042;-68
2023/01/29 10:57:00;;;;;;;36.85;20.20;;;2.90;96.70;;;;;;5026687;28;20025;-69
2023/01/29 10:59:55;;;;;;;34.40;18.40;;;3.00;96.60;;;;;;5025547;28;20033;-69
2023/01/29 11:02:21;;;;;;;34.50;19.10;;;2.80;96.40;;;;;;5006926;28;20473;-69
2023/01/29 11:04:47;;;;;;;33.65;19.15;;;2.80;96.40;;;;;;5026588;28;20040;-69
2023/01/29 11:07:16;;;;;;;34.72;20.35;;;2.70;96.60;;;;;;5023800;28;20041;-69
2023/01/29 11:10:07;;;;;;;31.70;18.58;;;2.70;97.10;;;;;;5025538;28;20046;-69
2023/01/29 11:12:35;;;;;;;32.05;18.75;;;2.60;97.20;;;;;;5027275;28;20037;-69
2023/01/29 11:15:15;;;;;;;28.48;17.38;;;2.60;97.30;;;;;;5030245;28;20489;-68
2023/01/29 11:18:02;;;;;;;35.70;19.98;;;2.60;97.50;;;;;;5021244;28;20061;-68
2023/01/29 11:20:29;;;;;;;35.65;19.80;;;2.60;97.60;;;;;;5026739;28;20116;-68
2023/01/29 11:22:55;;;;;;;33.55;19.55;;;2.60;97.70;;;;;;5020269;28;20073;-69
2023/01/29 11:25:21;;;;;;;35.38;20.45;;;2.50;97.70;;;;;;5021135;28;20072;-68
2023/01/29 11:27:56;;;;;;;35.45;19.83;;;2.60;97.70;;;;;;5023506;28;20041;-68
2023/01/29 11:30:29;;;;;;;40.38;20.58;;;2.60;97.50;;;;;;5027736;28;20408;-68
2023/01/29 11:33:22;;;;;;;32.40;18.98;;;2.60;97.50;;;;;;5025337;28;20527;-70
2023/01/29 11:35:48;;;;;;;32.15;19.40;;;2.60;97.40;;;;;;5020878;28;20037;-68
2023/01/29 11:38:27;;;;;;;38.40;20.35;;;2.60;97.20;;;;;;5025044;28;20100;-68
2023/01/29 11:41:06;;;;;;;35.33;19.55;;;2.70;97.30;;;;;;5025519;28;20045;-68
2023/01/29 11:43:32;;;;;;;32.40;18.40;;;2.60;97.00;;;;;;5026502;28;20083;-68
2023/01/29 11:46:05;;;;;;;37.17;19.42;;;2.70;96.90;;;;;;5023413;28;20041;-68
2023/01/29 11:48:46;;;;;;;36.05;20.42;;;2.80;96.70;;;;;;5031389;28;20079;-68
2023/01/29 11:51:22;;;;;;;33.83;19.05;;;2.80;96.40;;;;;;5026818;28;20141;-68
2023/01/29 11:54:01;;;;;;;32.50;19.23;;;2.90;96.20;;;;;;5031124;28;20118;-68
2023/01/29 11:56:38;;;;;;;32.63;17.67;;;2.90;95.70;;;;;;5027603;28;20028;-69
2023/01/29 11:59:04;;;;;;;34.75;20.10;;;3.00;95.60;;;;;;5024208;28;20046;-69
2023/01/29 12:01:39;;;;;;;34.88;20.08;;;2.90;95.10;;;;;;5027561;28;20034;-68
2023/01/29 12:04:20;;;;;;;31.08;19.17;;;2.90;95.20;;;;;;5025888;28;20041;-69
2023/01/29 12:06:50;;;;;;;32.15;18.45;;;2.90;95.10;;;;;;5032877;28;20032;-69
2023/01/29 12:09:20;;;;;;;28.92;17.80;;;2.90;94.60;;;;;;5020345;28;20029;-69
2023/01/29 12:11:46;;;;;;;28.52;17.60;;;2.90;94.60;;;;;;5021252;28;20596;-68
2023/01/29 12:14:32;;;;;;;28.35;17.58;;;3.00;94.50;;;;;;5026409;28;20116;-68
2023/01/29 12:17:05;;;;;;;27.52;17.10;;;3.00;94.30;;;;;;5026334;28;20040;-69
2023/01/29 12:19:46;;;;;;;30.05;17.85;;;3.00;94.20;;;;;;5028739;28;20033;-69
2023/01/29 12:22:26;;;;;;;30.15;18.08;;;3.10;94.20;;;;;;5026014;28;20498;-69
2023/01/29 12:25:21;;;;;;;28.35;18.08;;;3.00;93.90;;;;;;5021643;28;20385;-68
2023/01/29 12:28:01;;;;;;;28.52;17.42;;;3.10;93.70;;;;;;5018340;28;20406;-69
2023/01/29 12:30:35;;;;;;;28.80;17.70;;;3.00;93.80;;;;;;5027229;28;20033;-68
2023/01/29 12:33:16;;;;;;;25.83;17.15;;;3.00;93.90;;;;;;5021349;28;20056;-69
2023/01/29 12:35:58;;;;;;;29.30;17.58;;;3.10;93.80;;;;;;5025088;28;20057;-70
2023/01/29 12:38:24;;;;;;;26.75;16.98;;;3.10;93.70;;;;;;5020804;28;20473;-68
2023/01/29 12:41:03;;;;;;;32.22;18.05;;;3.10;93.80;;;;;;5025134;28;20080;-68
2023/01/29 12:43:39;;;;;;;28.60;15.90;;;3.10;94.10;;;;;;5022929;28;20029;-68
2023/01/29 12:46:21;;;;;;;28.95;17.75;;;3.10;94.00;;;;;;5022697;28;20447;-69
2023/01/29 12:48:48;;;;;;;27.52;16.23;;;3.10;94.20;;;;;;5025135;28;20060;-69
2023/01/29 12:51:18;;;;;;;29.70;18.63;;;3.00;94.10;;;;;;5022246;28;20028;-67
2023/01/29 12:53:50;;;;;;;29.63;17.13;;;3.10;94.10;;;;;;5027356;28;20048;-69
2023/01/29 12:56:57;;;;;;;29.92;17.75;;;3.10;93.90;;;;;;5028402;28;20454;-68
2023/01/29 12:59:35;;;;;;;32.50;17.58;;;3.10;93.90;;;;;;5024285;28;20040;-68
2023/01/29 13:02:27;;;;;;;29.60;18.73;;;3.10;94.10;;;;;;5023620;28;20060;-69
2023/01/29 13:05:00;;;;;;;29.98;17.77;;;3.10;93.80;;;;;;5024799;28;20412;-68
2023/01/29 13:07:38;;;;;;;33.70;17.08;;;3.10;93.50;;;;;;5026656;28;20037;-68
2023/01/29 13:10:12;;;;;;;32.40;17.75;;;3.20;93.50;;;;;;5023487;28;20040;-69
2023/01/29 13:12:41;;;;;;;24.70;15.30;;;3.30;93.50;;;;;;5016495;28;20080;-69
2023/01/29 13:15:21;;;;;;;28.02;18.60;;;3.30;93.00;;;;;;5025538;28;20052;-69
2023/01/29 13:17:53;;;;;;;23.57;15.00;;;3.30;93.10;;;;;;5028245;28;20033;-68
2023/01/29 13:20:28;;;;;;;25.67;15.63;;;3.20;92.80;;;;;;5024933;28;20465;-69
2023/01/29 13:22:57;;;;;;;29.73;17.38;;;3.10;92.80;;;;;;5022803;28;20061;-69
2023/01/29 13:25:23;;;;;;;26.15;17.10;;;3.20;92.70;;;;;;5021383;28;20084;-68
2023/01/29 13:27:49;;;;;;;26.70;16.90;;;3.10;92.80;;;;;;5026673;28;20458;-68
2023/01/29 13:30:29;;;;;;;27.13;17.20;;;3.10;92.90;;;;;;5028234;28;20069;-68
2023/01/29 13:33:07;;;;;;;27.75;16.67;;;3.10;92.80;;;;;;5023682;28;20044;-67
2023/01/29 13:35:34;;;;;;;24.92;15.40;;;3.10;92.90;;;;;;5023980;28;20045;-68